createdAt,value
2019-01-23T00:01:53.816Z,29.32
2019-01-23T00:04:24.328Z,31.50
2019-01-23T00:06:54.119Z,32.73
2019-01-23T00:09:24.475Z,33.13
2019-01-23T00:11:54.152Z,32.15
2019-01-23T00:14:24.179Z,34.78
2019-01-23T00:16:53.869Z,32.78
2019-01-23T00:19:23.690Z,35.10
2019-01-23T00:21:53.488Z,33.83
2019-01-23T00:24:23.215Z,34.80
2019-01-23T00:26:52.855Z,35.33
2019-01-23T00:29:22.780Z,36.35
2019-01-23T00:31:53.009Z,33.63
2019-01-23T00:34:22.698Z,34.73
2019-01-23T00:36:52.686Z,33.38
2019-01-23T00:39:22.902Z,34.58
2019-01-23T00:41:52.624Z,33.92
2019-01-23T00:44:22.454Z,31.93
2019-01-23T00:46:52.170Z,33.70
2019-01-23T00:49:22.399Z,34.58
2019-01-23T00:51:52.174Z,35.13
2019-01-23T00:54:22.387Z,33.23
2019-01-23T00:56:52.140Z,34.45
2019-01-23T00:59:22.355Z,34.98
2019-01-23T01:01:51.935Z,34.40
2019-01-23T01:04:22.409Z,32.85
2019-01-23T01:06:52.361Z,35.75
2019-01-23T01:09:22.419Z,34.90
2019-01-23T01:11:52.681Z,34.48
2019-01-23T01:14:23.683Z,34.80
2019-01-23T01:16:53.266Z,35.95
2019-01-23T01:19:24.241Z,38.98
2019-01-23T01:21:53.950Z,33.53
2019-01-23T01:24:23.592Z,35.33
2019-01-23T01:26:53.100Z,35.40
2019-01-23T01:29:23.075Z,36.00
2019-01-23T01:31:52.646Z,34.98
2019-01-23T01:34:24.478Z,32.78
2019-01-23T01:36:54.602Z,34.90
2019-01-23T01:39:25.440Z,37.48
2019-01-23T01:42:02.287Z,34.10
2019-01-23T01:44:33.875Z,37.48
2019-01-23T01:47:06.856Z,33.35
2019-01-23T01:49:37.127Z,33.45
2019-01-23T01:52:07.310Z,38.65
2019-01-23T01:54:37.506Z,34.53
2019-01-23T01:57:10.198Z,37.15
2019-01-23T01:59:40.242Z,35.70
2019-01-23T02:02:11.588Z,35.38
2019-01-23T02:04:42.230Z,33.33
2019-01-23T02:07:13.094Z,35.45
2019-01-23T02:09:45.507Z,35.28
2019-01-23T02:12:14.230Z,33.15
2019-01-23T02:14:44.201Z,33.53
2019-01-23T02:17:14.861Z,31.73
2019-01-23T02:19:46.431Z,33.05
2019-01-23T02:22:16.804Z,33.10
2019-01-23T02:24:46.992Z,30.95
2019-01-23T02:27:17.367Z,33.13
2019-01-23T02:29:47.740Z,32.83
2019-01-23T02:32:18.762Z,32.33
2019-01-23T02:34:49.749Z,33.25
2019-01-23T02:37:20.539Z,34.40
2019-01-23T02:39:50.329Z,32.95
2019-01-23T02:42:20.664Z,34.48
2019-01-23T02:44:50.500Z,34.73
2019-01-23T02:47:20.216Z,29.20
2019-01-23T02:49:49.959Z,34.78
2019-01-23T02:52:20.443Z,32.83
2019-01-23T02:54:50.397Z,35.60
2019-01-23T02:57:20.134Z,34.05
2019-01-23T02:59:49.714Z,35.73
2019-01-23T03:02:20.713Z,35.20
2019-01-23T03:04:50.422Z,32.10
2019-01-23T03:07:20.572Z,32.93
2019-01-23T03:09:50.247Z,33.35
2019-01-23T03:12:20.081Z,32.83
2019-01-23T03:14:49.716Z,30.48
2019-01-23T03:17:19.594Z,34.58
2019-01-23T03:19:50.439Z,34.15
2019-01-23T03:22:20.174Z,31.70
2019-01-23T03:24:49.843Z,34.25
2019-01-23T03:27:19.495Z,35.38
2019-01-23T03:29:49.828Z,35.20
2019-01-23T03:32:19.413Z,35.28
2019-01-23T03:34:49.855Z,36.70
2019-01-23T03:37:19.489Z,35.40
2019-01-23T03:39:49.350Z,36.55
2019-01-23T03:42:19.029Z,34.20
2019-01-23T03:44:48.534Z,35.00
2019-01-23T03:47:18.361Z,34.92
2019-01-23T03:49:49.307Z,35.15
2019-01-23T03:52:19.036Z,36.50
2019-01-23T03:54:48.956Z,36.50
2019-01-23T03:57:19.070Z,33.42
2019-01-23T03:59:48.756Z,33.50
2019-01-23T04:02:18.617Z,34.23
2019-01-23T04:04:49.088Z,33.55
2019-01-23T04:07:19.005Z,34.25
2019-01-23T04:09:49.686Z,30.48
2019-01-23T04:12:19.345Z,32.93
2019-01-23T04:14:49.092Z,35.63
2019-01-23T04:17:18.756Z,33.40
2019-01-23T04:19:48.515Z,32.88
2019-01-23T04:22:18.122Z,35.52
2019-01-23T04:24:47.824Z,35.63
2019-01-23T04:27:17.487Z,36.28
2019-01-23T04:29:47.252Z,32.65
2019-01-23T04:32:16.927Z,33.48
2019-01-23T04:34:47.269Z,32.45
2019-01-23T04:37:16.978Z,32.80
2019-01-23T04:39:46.555Z,33.08
2019-01-23T04:42:16.386Z,32.20
2019-01-23T04:44:46.189Z,33.35
2019-01-23T04:47:16.819Z,33.28
2019-01-23T04:49:46.465Z,34.00
2019-01-23T04:52:37.776Z,33.00
2019-01-23T04:55:07.550Z,34.03
2019-01-23T04:57:37.368Z,32.55
2019-01-23T05:00:08.159Z,36.45
2019-01-23T05:02:37.933Z,35.80
2019-01-23T05:05:08.755Z,33.73
2019-01-23T05:07:38.678Z,32.20
2019-01-23T05:10:08.930Z,33.42
2019-01-23T05:12:39.035Z,34.40
2019-01-23T05:15:08.958Z,33.78
2019-01-23T05:17:38.643Z,34.48
2019-01-23T05:20:09.730Z,33.45
2019-01-23T05:22:39.512Z,33.73
2019-01-23T05:25:09.445Z,36.00
2019-01-23T05:27:39.180Z,31.77
2019-01-23T05:30:13.027Z,32.80
2019-01-23T05:32:43.244Z,34.43
2019-01-23T05:35:13.056Z,34.00
2019-01-23T05:37:42.756Z,33.70
2019-01-23T05:40:13.756Z,35.43
2019-01-23T05:42:43.530Z,36.13
2019-01-23T05:45:14.463Z,32.80
2019-01-23T05:47:44.190Z,35.28
2019-01-23T05:50:15.209Z,32.35
2019-01-23T05:52:45.037Z,33.63
2019-01-23T05:55:14.868Z,36.45
2019-01-23T05:57:44.666Z,36.68
2019-01-23T06:00:16.856Z,38.30
2019-01-23T06:02:46.740Z,37.55
2019-01-23T06:05:16.883Z,35.58
2019-01-23T06:07:47.519Z,37.23
2019-01-23T06:10:17.410Z,33.40
2019-01-23T06:12:47.432Z,33.60
2019-01-23T06:15:17.303Z,30.88
2019-01-23T06:17:48.822Z,38.60
2019-01-23T06:20:19.992Z,36.73
2019-01-23T06:22:50.618Z,37.78
2019-01-23T06:25:20.474Z,37.35
2019-01-23T06:27:50.489Z,35.00
2019-01-23T06:30:22.538Z,34.15
2019-01-23T06:32:53.039Z,34.85
2019-01-23T06:35:22.829Z,35.68
2019-01-23T06:37:52.431Z,34.08
2019-01-23T06:40:22.923Z,35.13
2019-01-23T06:42:53.895Z,34.45
2019-01-23T06:45:24.402Z,35.98
2019-01-23T06:47:54.518Z,36.10
2019-01-23T06:50:25.993Z,35.30
2019-01-23T06:52:58.056Z,24.40
2019-01-23T06:55:28.667Z,12.18
2019-01-23T06:57:58.372Z,15.65
2019-01-23T07:00:28.453Z,22.52
2019-01-23T07:02:59.291Z,32.88
2019-01-23T07:05:29.668Z,32.83
2019-01-23T07:07:59.489Z,32.28
2019-01-23T07:10:29.376Z,36.63
2019-01-23T07:12:59.204Z,36.15
2019-01-23T07:15:29.152Z,35.25
2019-01-23T07:17:58.722Z,40.43
2019-01-23T07:20:29.463Z,40.15
2019-01-23T07:22:59.840Z,18.05
2019-01-23T07:25:29.579Z,33.48
2019-01-23T07:28:00.153Z,36.60
2019-01-23T07:30:50.925Z,41.05
2019-01-23T07:33:20.894Z,36.35
2019-01-23T07:35:50.820Z,34.70
2019-01-23T07:38:21.175Z,25.23
2019-01-23T07:40:51.648Z,39.27
2019-01-23T07:43:23.126Z,40.65
2019-01-23T07:45:52.924Z,34.45
2019-01-23T07:48:23.293Z,31.40
2019-01-23T07:50:53.711Z,22.13
2019-01-23T07:53:24.379Z,5.30
2019-01-23T07:55:53.899Z,20.45
2019-01-23T07:58:24.930Z,40.28
2019-01-23T08:00:56.828Z,34.78
2019-01-23T08:03:27.210Z,39.13
2019-01-23T08:05:58.762Z,28.10
2019-01-23T08:08:30.433Z,27.95
2019-01-23T08:11:02.390Z,30.20
2019-01-23T08:13:34.111Z,13.72
2019-01-23T08:16:03.756Z,26.33
2019-01-23T08:18:34.132Z,15.18
2019-01-23T08:21:04.098Z,15.03
2019-01-23T08:23:34.624Z,18.32
2019-01-23T08:26:04.812Z,24.25
2019-01-23T08:28:35.815Z,23.40
2019-01-23T08:31:06.283Z,30.23
2019-01-23T08:33:35.998Z,36.08
2019-01-23T08:36:08.454Z,12.80
2019-01-23T08:38:38.985Z,18.20
2019-01-23T08:41:10.298Z,33.23
2019-01-23T08:43:40.384Z,28.55
2019-01-23T08:46:10.526Z,33.23
2019-01-23T08:48:40.273Z,22.07
2019-01-23T08:51:11.783Z,37.65
2019-01-23T08:53:42.246Z,19.98
2019-01-23T08:56:11.884Z,25.70
2019-01-23T08:58:43.434Z,17.32
2019-01-23T09:01:13.366Z,11.15
2019-01-23T09:03:44.332Z,2.80
2019-01-23T09:06:14.742Z,27.65
2019-01-23T09:08:45.303Z,19.05
2019-01-23T09:11:15.097Z,25.68
2019-01-23T09:13:45.571Z,28.12
2019-01-23T09:16:15.324Z,19.95
2019-01-23T09:18:46.788Z,21.10
2019-01-23T09:21:17.341Z,4.53
2019-01-23T09:23:47.115Z,7.87
2019-01-23T09:26:18.571Z,3.00
2019-01-23T09:28:50.698Z,32.50
2019-01-23T09:31:53.589Z,3.70
2019-01-23T09:35:10.167Z,34.33
2019-01-23T09:38:22.440Z,32.08
2019-01-23T09:41:17.301Z,14.38
2019-01-23T09:44:20.427Z,16.00
2019-01-23T09:47:29.867Z,27.87
2019-01-23T09:50:27.706Z,26.35
2019-01-23T09:53:20.874Z,9.58
2019-01-23T09:55:51.531Z,2.77
2019-01-23T09:58:22.194Z,3.83
2019-01-23T10:00:59.702Z,0.40
2019-01-23T10:03:27.759Z,0.62
2019-01-23T10:05:57.394Z,23.47
2019-01-23T10:08:27.413Z,38.45
2019-01-23T10:10:57.663Z,35.40
2019-01-23T10:13:28.199Z,34.45
2019-01-23T10:16:12.259Z,34.10
2019-01-23T10:18:43.157Z,39.85
2019-01-23T10:21:13.402Z,37.00
2019-01-23T10:23:43.819Z,23.83
2019-01-23T10:26:14.235Z,8.58
2019-01-23T10:28:44.942Z,25.72
2019-01-23T10:31:16.080Z,9.18
2019-01-23T10:33:46.328Z,19.45
2019-01-23T10:36:16.346Z,20.12
2019-01-23T10:38:49.170Z,18.45
2019-01-23T10:41:19.385Z,27.98
2019-01-23T10:43:50.941Z,22.65
2019-01-23T10:46:20.818Z,22.02
2019-01-23T10:48:52.617Z,27.58
2019-01-23T10:51:22.301Z,33.20
2019-01-23T10:53:52.596Z,30.50
2019-01-23T10:56:22.211Z,14.07
2019-01-23T10:58:52.760Z,31.17
2019-01-23T11:01:22.508Z,21.70
2019-01-23T11:03:52.890Z,10.23
2019-01-23T11:06:23.414Z,8.93
2019-01-23T11:08:53.500Z,10.43
2019-01-23T11:11:23.954Z,23.10
2019-01-23T11:13:54.565Z,31.50
2019-01-23T11:16:24.255Z,32.45
2019-01-23T11:18:54.831Z,10.03
2019-01-23T11:21:25.031Z,17.37
2019-01-23T11:23:55.305Z,19.20
2019-01-23T11:26:25.567Z,19.62
2019-01-23T11:28:56.543Z,20.27
2019-01-23T11:31:26.237Z,9.68
2019-01-23T11:33:56.652Z,10.32
2019-01-23T11:36:26.311Z,7.00
2019-01-23T11:38:56.377Z,15.53
2019-01-23T11:41:26.103Z,33.67
2019-01-23T11:43:56.813Z,18.25
2019-01-23T11:46:26.711Z,16.62
2019-01-23T11:48:57.162Z,9.10
2019-01-23T11:51:26.997Z,12.25
2019-01-23T11:53:56.960Z,12.85
2019-01-23T11:56:26.678Z,28.52
2019-01-23T11:58:57.092Z,24.72
2019-01-23T12:01:27.893Z,25.15
2019-01-23T12:03:57.927Z,25.25
2019-01-23T12:06:27.732Z,15.18
2019-01-23T12:08:57.585Z,21.25
2019-01-23T12:11:27.669Z,26.48
2019-01-23T12:13:57.438Z,28.73
2019-01-23T12:16:27.371Z,24.63
2019-01-23T12:18:57.421Z,24.95
2019-01-23T12:21:27.281Z,24.95
2019-01-23T12:23:58.300Z,23.07
2019-01-23T12:26:30.145Z,29.42
2019-01-23T12:29:00.716Z,24.20
2019-01-23T12:31:35.074Z,23.60
2019-01-23T12:34:04.801Z,25.70
2019-01-23T12:36:35.872Z,14.78
2019-01-23T12:39:09.006Z,20.10
2019-01-23T12:41:39.466Z,18.82
2019-01-23T12:44:09.534Z,23.57
2019-01-23T12:46:39.685Z,14.60
2019-01-23T12:49:10.331Z,30.43
2019-01-23T12:51:40.390Z,25.65
2019-01-23T12:54:11.159Z,18.00
2019-01-23T12:56:41.197Z,16.52
2019-01-23T12:59:11.881Z,21.80
2019-01-23T13:01:44.545Z,8.48
2019-01-23T13:04:14.335Z,7.35
2019-01-23T13:06:44.149Z,15.25
2019-01-23T13:09:14.203Z,3.85
2019-01-23T13:11:46.335Z,7.30
2019-01-23T13:14:17.745Z,7.30
2019-01-23T13:16:48.204Z,3.60
2019-01-23T13:19:18.726Z,7.42
2019-01-23T13:21:48.370Z,10.25
2019-01-23T13:24:19.598Z,12.78
2019-01-23T13:26:49.392Z,4.65
2019-01-23T13:29:19.468Z,22.07
2019-01-23T13:31:49.428Z,9.20
2019-01-23T13:34:19.869Z,18.82
2019-01-23T13:36:49.884Z,4.80
2019-01-23T13:39:20.587Z,14.85
2019-01-23T13:41:50.664Z,5.15
2019-01-23T13:44:21.066Z,12.88
2019-01-23T13:46:50.924Z,8.80
2019-01-23T13:49:21.468Z,3.85
2019-01-23T13:51:51.303Z,7.10
2019-01-23T13:54:21.425Z,2.60
2019-01-23T13:56:53.310Z,3.10
2019-01-23T13:59:24.896Z,11.55
2019-01-23T14:01:56.307Z,3.70
2019-01-23T14:04:26.538Z,7.67
2019-01-23T14:06:56.612Z,0.30
2019-01-23T14:09:26.693Z,4.47
2019-01-23T14:11:56.784Z,0.60
2019-01-23T14:14:26.938Z,4.22
2019-01-23T14:16:56.715Z,4.87
2019-01-23T14:19:26.808Z,2.27
2019-01-23T14:21:56.528Z,0.75
2019-01-23T14:24:26.563Z,6.58
2019-01-23T14:26:56.406Z,2.00
2019-01-23T14:29:26.955Z,1.27
2019-01-23T14:32:03.116Z,2.02
2019-01-23T14:34:28.920Z,0.40
2019-01-23T14:36:58.723Z,0.60
2019-01-23T14:39:29.270Z,0.50
2019-01-23T14:41:59.258Z,0.20
2019-01-23T14:44:29.150Z,2.95
2019-01-23T14:46:59.092Z,0.30
2019-01-23T14:49:28.981Z,6.30
2019-01-23T14:51:58.683Z,7.78
2019-01-23T14:54:29.170Z,2.20
2019-01-23T14:56:59.000Z,6.17
2019-01-23T14:59:29.701Z,0.35
2019-01-23T15:01:59.428Z,8.10
2019-01-23T15:04:31.266Z,8.08
2019-01-23T15:07:02.280Z,5.22
2019-01-23T15:09:33.368Z,0.40
2019-01-23T15:12:03.223Z,3.17
2019-01-23T15:14:33.578Z,5.15
2019-01-23T15:17:03.369Z,1.85
2019-01-23T15:19:33.293Z,5.35
2019-01-23T15:22:03.207Z,1.47
2019-01-23T15:24:33.065Z,0.40
2019-01-23T15:27:03.208Z,16.67
2019-01-23T15:29:33.046Z,26.97
2019-01-23T15:32:03.009Z,25.30
2019-01-23T15:34:32.701Z,25.82
2019-01-23T15:37:02.505Z,26.73
2019-01-23T15:39:32.196Z,23.67
2019-01-23T15:42:02.103Z,27.22
2019-01-23T15:44:32.355Z,27.60
2019-01-23T15:47:02.273Z,26.37
2019-01-23T15:49:32.008Z,24.90
2019-01-23T15:52:01.823Z,25.48
2019-01-23T15:54:31.781Z,24.75
2019-01-23T15:57:01.695Z,25.08
2019-01-23T15:59:32.522Z,25.43
2019-01-23T16:02:02.370Z,25.95
2019-01-23T16:04:35.233Z,26.52
2019-01-23T16:07:05.147Z,25.60
2019-01-23T16:09:36.919Z,26.23
2019-01-23T16:12:06.766Z,23.15
2019-01-23T16:14:37.287Z,24.80
2019-01-23T16:17:07.252Z,26.12
2019-01-23T16:19:37.819Z,23.70
2019-01-23T16:22:07.693Z,22.45
2019-01-23T16:24:37.674Z,23.87
2019-01-23T16:27:07.843Z,24.57
2019-01-23T16:29:38.297Z,24.37
2019-01-23T16:32:08.379Z,26.55
2019-01-23T16:34:38.262Z,27.30
2019-01-23T16:37:09.917Z,26.20
2019-01-23T16:39:39.754Z,23.38
2019-01-23T16:42:09.979Z,25.05
2019-01-23T16:44:40.825Z,23.30
2019-01-23T16:47:11.603Z,26.25
2019-01-23T16:49:45.172Z,25.80
2019-01-23T16:52:15.264Z,25.52
2019-01-23T16:54:46.006Z,24.23
2019-01-23T16:57:16.575Z,25.90
2019-01-23T16:59:47.099Z,25.35
2019-01-23T17:02:17.550Z,27.07
2019-01-23T17:04:47.559Z,25.52
2019-01-23T17:07:17.696Z,25.10
2019-01-23T17:09:49.527Z,27.15
2019-01-23T17:12:19.712Z,26.52
2019-01-23T17:14:49.830Z,25.65
2019-01-23T17:17:19.579Z,25.35
2019-01-23T17:19:49.349Z,26.12
2019-01-23T17:22:19.130Z,28.07
2019-01-23T17:24:49.555Z,26.17
2019-01-23T17:27:20.808Z,27.05
2019-01-23T17:29:51.665Z,27.62
2019-01-23T17:32:22.247Z,31.27
2019-01-23T17:34:52.999Z,28.05
2019-01-23T17:37:22.754Z,30.90
2019-01-23T17:39:52.494Z,28.30
2019-01-23T17:42:23.402Z,28.42
2019-01-23T17:44:53.035Z,28.35
2019-01-23T17:47:22.900Z,31.50
2019-01-23T17:49:54.239Z,30.08
2019-01-23T17:52:25.012Z,27.30
2019-01-23T17:54:55.328Z,30.55
2019-01-23T17:57:25.449Z,28.90
2019-01-23T17:59:55.098Z,29.70
2019-01-23T18:02:27.981Z,31.57
2019-01-23T18:04:58.670Z,31.00
2019-01-23T18:07:28.741Z,30.97
2019-01-23T18:09:59.319Z,29.72
2019-01-23T18:12:29.966Z,31.97
2019-01-23T18:14:59.983Z,31.20
2019-01-23T18:17:29.857Z,31.37
2019-01-23T18:19:59.999Z,34.20
2019-01-23T18:22:29.873Z,32.70
2019-01-23T18:24:59.771Z,33.30
2019-01-23T18:27:29.696Z,32.05
2019-01-23T18:29:59.624Z,31.75
2019-01-23T18:32:29.445Z,32.75
2019-01-23T18:35:28.213Z,32.50
2019-01-23T18:38:41.897Z,34.40
2019-01-23T18:42:00.402Z,34.90
2019-01-23T18:45:06.056Z,33.70
2019-01-23T18:48:05.081Z,33.30
2019-01-23T18:51:12.124Z,34.90
2019-01-23T18:53:42.333Z,34.35
2019-01-23T18:56:12.031Z,35.55
2019-01-23T18:58:42.801Z,35.35
2019-01-23T19:01:12.671Z,37.10
2019-01-23T19:03:43.348Z,37.53
2019-01-23T19:06:13.056Z,34.27
2019-01-23T19:08:43.670Z,36.20
2019-01-23T19:11:13.755Z,37.58
2019-01-23T19:13:44.353Z,36.40
2019-01-23T19:16:14.626Z,33.25
2019-01-23T19:18:51.720Z,35.23
2019-01-23T19:21:22.280Z,31.73
2019-01-23T19:23:52.465Z,31.65
2019-01-23T19:26:22.228Z,33.65
2019-01-23T19:28:52.960Z,34.55
2019-01-23T19:31:22.755Z,35.83
2019-01-23T19:33:53.343Z,35.58
2019-01-23T19:36:23.526Z,34.00
2019-01-23T19:38:54.165Z,35.75
2019-01-23T19:41:24.170Z,32.25
2019-01-23T19:43:54.727Z,34.10
2019-01-23T19:46:24.634Z,39.00
2019-01-23T19:48:54.849Z,33.75
2019-01-23T19:51:27.870Z,35.23
2019-01-23T19:53:58.391Z,36.45
2019-01-23T19:56:28.567Z,34.33
2019-01-23T19:58:59.055Z,30.65
2019-01-23T20:01:29.170Z,32.78
2019-01-23T20:03:59.799Z,33.98
2019-01-23T20:06:29.755Z,34.43
2019-01-23T20:08:59.479Z,33.20
2019-01-23T20:11:30.395Z,35.88
2019-01-23T20:14:00.333Z,33.92
2019-01-23T20:16:30.338Z,35.10
2019-01-23T20:19:02.630Z,34.43
2019-01-23T20:21:32.684Z,33.30
2019-01-23T20:24:04.269Z,35.03
2019-01-23T20:26:34.381Z,36.38
2019-01-23T20:29:04.447Z,33.83
2019-01-23T20:31:34.338Z,31.87
2019-01-23T20:34:06.250Z,33.10
2019-01-23T20:36:35.944Z,35.03
2019-01-23T20:39:10.270Z,34.83
2019-01-23T20:41:40.406Z,36.30
2019-01-23T20:44:10.520Z,32.25
2019-01-23T20:46:40.186Z,34.83
2019-01-23T20:49:10.736Z,34.45
2019-01-23T20:51:40.575Z,32.80
2019-01-23T20:54:11.126Z,35.48
2019-01-23T20:56:40.917Z,34.95
2019-01-23T20:59:11.546Z,34.08
2019-01-23T21:01:41.383Z,30.90
2019-01-23T21:04:12.082Z,34.13
2019-01-23T21:06:41.828Z,31.97
2019-01-23T21:09:11.952Z,31.65
2019-01-23T21:11:42.958Z,32.80
2019-01-23T21:14:12.674Z,30.10
2019-01-23T21:16:43.220Z,34.65
2019-01-23T21:19:12.919Z,32.20
2019-01-23T21:21:42.847Z,34.67
2019-01-23T21:24:13.051Z,32.60
2019-01-23T21:26:44.016Z,38.40
2019-01-23T21:29:13.650Z,32.93
2019-01-23T21:31:43.606Z,35.78
2019-01-23T21:34:13.932Z,34.30
2019-01-23T21:36:43.844Z,34.90
2019-01-23T21:39:13.547Z,32.65
2019-01-23T21:41:43.278Z,32.90
2019-01-23T21:44:14.337Z,34.38
2019-01-23T21:46:44.058Z,32.38
2019-01-23T21:49:14.597Z,30.23
2019-01-23T21:51:44.515Z,33.63
2019-01-23T21:54:14.248Z,30.45
2019-01-23T21:56:43.880Z,30.43
2019-01-23T21:59:14.402Z,30.57
2019-01-23T22:01:44.286Z,31.75
2019-01-23T22:04:14.767Z,32.80
2019-01-23T22:06:44.464Z,32.90
2019-01-23T22:09:15.200Z,31.33
2019-01-23T22:11:45.080Z,29.90
2019-01-23T22:14:15.468Z,34.55
2019-01-23T22:16:45.125Z,33.78
2019-01-23T22:19:15.343Z,33.33
2019-01-23T22:21:45.177Z,32.80
2019-01-23T22:24:15.639Z,33.33
2019-01-23T22:26:45.577Z,32.78
2019-01-23T22:29:15.427Z,33.30
2019-01-23T22:31:45.270Z,32.30
2019-01-23T22:34:15.848Z,32.50
2019-01-23T22:36:45.703Z,31.33
2019-01-23T22:39:16.025Z,29.67
2019-01-23T22:41:45.817Z,33.98
2019-01-23T22:44:16.280Z,31.65
2019-01-23T22:46:46.267Z,34.67
2019-01-23T22:49:16.682Z,32.83
2019-01-23T22:51:46.811Z,30.82
2019-01-23T22:54:17.247Z,29.67
2019-01-23T22:56:46.855Z,32.23
2019-01-23T22:59:16.647Z,31.68
2019-01-23T23:01:47.083Z,34.13
2019-01-23T23:04:17.738Z,35.23
2019-01-23T23:06:47.415Z,34.08
2019-01-23T23:09:17.590Z,30.90
2019-01-23T23:11:47.438Z,33.25
2019-01-23T23:14:18.469Z,32.38
2019-01-23T23:16:48.204Z,29.57
2019-01-23T23:19:18.031Z,30.65
2019-01-23T23:21:47.814Z,30.27
2019-01-23T23:24:17.853Z,31.87
2019-01-23T23:26:47.510Z,33.05
2019-01-23T23:29:17.207Z,30.27
2019-01-23T23:31:47.075Z,31.07
2019-01-23T23:34:17.519Z,34.67
2019-01-23T23:36:47.360Z,31.82
2019-01-23T23:39:17.585Z,32.45
2019-01-23T23:41:47.360Z,31.80
2019-01-23T23:44:17.218Z,32.03
2019-01-23T23:46:46.959Z,32.78
2019-01-23T23:49:18.222Z,35.00
2019-01-23T23:51:48.072Z,33.75
2019-01-23T23:54:18.251Z,32.78
2019-01-23T23:56:48.105Z,35.70
2019-01-23T23:59:18.148Z,31.65
